createdAt,value
2022-09-01T00:00:06.180Z,1019.72
2022-09-01T00:01:06.163Z,1019.71
2022-09-01T00:02:06.182Z,1019.73
2022-09-01T00:03:06.140Z,1019.73
2022-09-01T00:04:06.202Z,1019.73
2022-09-01T00:05:06.126Z,1019.70
2022-09-01T00:06:06.127Z,1019.70
2022-09-01T00:07:06.095Z,1019.73
2022-09-01T00:08:06.084Z,1019.71
2022-09-01T00:09:06.076Z,1019.70
2022-09-01T00:10:06.068Z,1019.70
2022-09-01T00:11:06.050Z,1019.71
2022-09-01T00:12:06.070Z,1019.71
2022-09-01T00:13:06.028Z,1019.70
2022-09-01T00:14:06.018Z,1019.69
2022-09-01T00:15:07.007Z,1019.68
2022-09-01T00:16:06.107Z,1019.68
2022-09-01T00:17:05.985Z,1019.69
2022-09-01T00:18:06.004Z,1019.68
2022-09-01T00:19:05.962Z,1019.67
2022-09-01T00:20:05.954Z,1019.71
2022-09-01T00:21:05.941Z,1019.72
2022-09-01T00:22:05.928Z,1019.77
2022-09-01T00:23:05.917Z,1019.72
2022-09-01T00:24:05.916Z,1019.77
2022-09-01T00:25:05.901Z,1019.69
2022-09-01T00:26:05.884Z,1019.72
2022-09-01T00:27:05.872Z,1019.73
2022-09-01T00:28:05.862Z,1019.72
2022-09-01T00:29:05.850Z,1019.72
2022-09-01T00:30:05.861Z,1019.73
2022-09-01T00:31:05.886Z,1019.71
2022-09-01T00:32:05.817Z,1019.66
2022-09-01T00:33:05.808Z,1019.70
2022-09-01T00:34:05.800Z,1019.70
2022-09-01T00:35:05.784Z,1019.69
2022-09-01T00:36:05.786Z,1019.71
2022-09-01T00:37:05.763Z,1019.66
2022-09-01T00:38:05.750Z,1019.68
2022-09-01T00:39:05.741Z,1019.65
2022-09-01T00:40:05.746Z,1019.67
2022-09-01T00:41:05.718Z,1019.71
2022-09-01T00:42:05.720Z,1019.65
2022-09-01T00:43:05.696Z,1019.63
2022-09-01T00:44:05.684Z,1019.62
2022-09-01T00:45:05.672Z,1019.66
2022-09-01T00:46:05.726Z,1019.64
2022-09-01T00:47:05.656Z,1019.63
2022-09-01T00:48:05.653Z,1019.62
2022-09-01T00:49:05.627Z,1019.58
2022-09-01T00:50:05.616Z,1019.60
2022-09-01T00:51:05.607Z,1019.63
2022-09-01T00:52:05.594Z,1019.59
2022-09-01T00:53:05.584Z,1019.59
2022-09-01T00:54:05.601Z,1019.62
2022-09-01T00:55:05.562Z,1019.62
2022-09-01T00:56:05.550Z,1019.58
2022-09-01T00:57:05.538Z,1019.58
2022-09-01T00:58:05.528Z,1019.60
2022-09-01T00:59:05.517Z,1019.59
2022-09-01T01:00:05.513Z,1019.60
2022-09-01T01:01:05.523Z,1019.62
2022-09-01T01:02:05.568Z,1019.59
2022-09-01T01:03:05.472Z,1019.61
2022-09-01T01:04:05.461Z,1019.62
2022-09-01T01:05:05.449Z,1019.60
2022-09-01T01:06:05.458Z,1019.58
2022-09-01T01:07:05.426Z,1019.59
2022-09-01T01:08:05.416Z,1019.58
2022-09-01T01:09:05.407Z,1019.60
2022-09-01T01:10:05.394Z,1019.56
2022-09-01T01:11:05.384Z,1019.57
2022-09-01T01:12:05.382Z,1019.55
2022-09-01T01:13:05.361Z,1019.54
2022-09-01T01:14:05.349Z,1019.54
2022-09-01T01:15:05.340Z,1019.52
2022-09-01T01:16:05.336Z,1019.55
2022-09-01T01:17:05.412Z,1019.51
2022-09-01T01:18:05.326Z,1019.54
2022-09-01T01:19:05.310Z,1019.54
2022-09-01T01:20:05.287Z,1019.53
2022-09-01T01:21:05.334Z,1019.53
2022-09-01T01:22:05.274Z,1019.56
2022-09-01T01:23:05.297Z,1019.57
2022-09-01T01:24:05.257Z,1019.58
2022-09-01T01:25:05.237Z,1019.54
2022-09-01T01:26:05.215Z,1019.54
2022-09-01T01:27:05.215Z,1019.52
2022-09-01T01:28:05.196Z,1019.54
2022-09-01T01:29:05.182Z,1019.55
2022-09-01T01:30:05.202Z,1019.55
2022-09-01T01:31:05.238Z,1019.55
2022-09-01T01:32:05.152Z,1019.59
2022-09-01T01:33:05.146Z,1019.54
2022-09-01T01:34:05.126Z,1019.55
2022-09-01T01:35:05.127Z,1019.61
2022-09-01T01:36:05.126Z,1019.56
2022-09-01T01:37:05.098Z,1019.60
2022-09-01T01:38:05.082Z,1019.54
2022-09-01T01:39:05.073Z,1019.59
2022-09-01T01:40:05.111Z,1019.58
2022-09-01T01:41:05.051Z,1019.59
2022-09-01T01:42:05.046Z,1019.54
2022-09-01T01:43:05.026Z,1019.54
2022-09-01T01:44:05.015Z,1019.58
2022-09-01T01:45:05.011Z,1019.57
2022-09-01T01:46:05.077Z,1019.59
2022-09-01T01:47:04.981Z,1019.53
2022-09-01T01:48:04.975Z,1019.54
2022-09-01T01:49:04.959Z,1019.59
2022-09-01T01:50:04.947Z,1019.54
2022-09-01T01:51:04.965Z,1019.53
2022-09-01T01:52:04.946Z,1019.48
2022-09-01T01:53:11.095Z,1019.48
2022-09-01T01:54:05.909Z,1019.50
2022-09-01T01:55:06.065Z,1019.44
2022-09-01T01:56:04.883Z,1019.45
2022-09-01T01:57:04.872Z,1019.47
2022-09-01T01:58:04.859Z,1019.47
2022-09-01T01:59:04.848Z,1019.45
2022-09-01T02:00:04.851Z,1019.49
2022-09-01T02:01:04.846Z,1019.45
2022-09-01T02:02:04.884Z,1019.44
2022-09-01T02:03:04.804Z,1019.47
2022-09-01T02:04:04.791Z,1019.43
2022-09-01T02:05:04.780Z,1019.45
2022-09-01T02:06:04.806Z,1019.44
2022-09-01T02:07:04.758Z,1019.44
2022-09-01T02:08:04.783Z,1019.46
2022-09-01T02:09:04.736Z,1019.48
2022-09-01T02:10:04.725Z,1019.42
2022-09-01T02:11:04.714Z,1019.45
2022-09-01T02:12:04.724Z,1019.43
2022-09-01T02:13:04.718Z,1019.46
2022-09-01T02:14:04.681Z,1019.51
2022-09-01T02:15:04.669Z,1019.49
2022-09-01T02:16:04.657Z,1019.53
2022-09-01T02:17:04.707Z,1019.48
2022-09-01T02:18:05.073Z,1019.48
2022-09-01T02:19:04.624Z,1019.50
2022-09-01T02:20:04.614Z,1019.48
2022-09-01T02:21:04.602Z,1019.51
2022-09-01T02:22:04.590Z,1019.49
2022-09-01T02:23:04.580Z,1019.50
2022-09-01T02:24:04.592Z,1019.49
2022-09-01T02:25:04.558Z,1019.48
2022-09-01T02:26:16.211Z,1019.51
2022-09-01T02:27:05.536Z,1019.53
2022-09-01T02:28:04.523Z,1019.49
2022-09-01T02:29:04.512Z,1019.45
2022-09-01T02:30:04.507Z,1019.49
2022-09-01T02:31:04.536Z,1019.45
2022-09-01T02:32:04.482Z,1019.49
2022-09-01T02:33:04.474Z,1019.43
2022-09-01T02:34:04.456Z,1019.42
2022-09-01T02:35:04.445Z,1019.44
2022-09-01T02:36:04.469Z,1019.41
2022-09-01T02:37:04.425Z,1019.40
2022-09-01T02:38:04.413Z,1019.37
2022-09-01T02:39:04.401Z,1019.39
2022-09-01T02:40:04.432Z,1019.42
2022-09-01T02:41:04.378Z,1019.39
2022-09-01T02:42:04.396Z,1019.44
2022-09-01T02:43:04.356Z,1019.40
2022-09-01T02:44:04.345Z,1019.44
2022-09-01T02:45:04.337Z,1019.47
2022-09-01T02:46:04.398Z,1019.38
2022-09-01T02:47:04.312Z,1019.49
2022-09-01T02:48:04.321Z,1019.43
2022-09-01T02:49:04.290Z,1019.42
2022-09-01T02:50:04.279Z,1019.43
2022-09-01T02:51:04.267Z,1019.39
2022-09-01T02:52:04.256Z,1019.35
2022-09-01T02:53:04.246Z,1019.37
2022-09-01T02:54:04.240Z,1019.38
2022-09-01T02:55:04.223Z,1019.36
2022-09-01T02:56:04.211Z,1019.36
2022-09-01T02:57:04.202Z,1019.32
2022-09-01T02:58:04.189Z,1019.35
2022-09-01T02:59:04.183Z,1019.32
2022-09-01T03:00:04.173Z,1019.30
2022-09-01T03:01:04.208Z,1019.36
2022-09-01T03:02:04.145Z,1019.30
2022-09-01T03:03:04.133Z,1019.34
2022-09-01T03:04:04.133Z,1019.33
2022-09-01T03:05:04.185Z,1019.35
2022-09-01T03:06:04.106Z,1019.34
2022-09-01T03:07:04.088Z,1019.32
2022-09-01T03:08:04.080Z,1019.30
2022-09-01T03:09:04.081Z,1019.33
2022-09-01T03:10:04.055Z,1019.32
2022-09-01T03:11:04.044Z,1019.34
2022-09-01T03:12:04.047Z,1019.39
2022-09-01T03:13:04.022Z,1019.37
2022-09-01T03:14:04.010Z,1019.35
2022-09-01T03:15:03.999Z,1019.34
2022-09-01T03:16:04.034Z,1019.38
2022-09-01T03:17:03.977Z,1019.37
2022-09-01T03:18:03.995Z,1019.40
2022-09-01T03:19:03.957Z,1019.40
2022-09-01T03:20:03.944Z,1019.39
2022-09-01T03:21:03.932Z,1019.37
2022-09-01T03:22:03.921Z,1019.32
2022-09-01T03:23:03.910Z,1019.41
2022-09-01T03:24:03.924Z,1019.38
2022-09-01T03:25:03.887Z,1019.27
2022-09-01T03:26:03.878Z,1019.33
2022-09-01T03:27:03.865Z,1019.43
2022-09-01T03:28:03.854Z,1019.38
2022-09-01T03:29:03.843Z,1019.42
2022-09-01T03:30:03.854Z,1019.40
2022-09-01T03:31:03.823Z,1019.29
2022-09-01T03:32:03.888Z,1019.31
2022-09-01T03:33:03.801Z,1019.35
2022-09-01T03:34:03.798Z,1019.34
2022-09-01T03:35:03.776Z,1019.36
2022-09-01T03:36:03.770Z,1019.35
2022-09-01T03:37:03.756Z,1019.33
2022-09-01T03:38:03.743Z,1019.32
2022-09-01T03:39:03.737Z,1019.28
2022-09-01T03:40:03.811Z,1019.32
2022-09-01T03:41:03.709Z,1019.30
2022-09-01T03:42:03.704Z,1019.32
2022-09-01T03:43:03.688Z,1019.27
2022-09-01T03:44:03.675Z,1019.33
2022-09-01T03:45:03.664Z,1019.33
2022-09-01T03:46:03.764Z,1019.32
2022-09-01T03:47:03.645Z,1019.33
2022-09-01T03:48:03.647Z,1019.33
2022-09-01T03:49:03.620Z,1019.35
2022-09-01T03:50:03.608Z,1019.32
2022-09-01T03:51:03.600Z,1019.35
2022-09-01T03:52:03.585Z,1019.35
2022-09-01T03:53:03.575Z,1019.29
2022-09-01T03:54:03.596Z,1019.31
2022-09-01T03:55:03.570Z,1019.30
2022-09-01T03:56:03.542Z,1019.30
2022-09-01T03:57:03.534Z,1019.30
2022-09-01T03:58:03.519Z,1019.32
2022-09-01T03:59:03.508Z,1019.30
2022-09-01T04:00:03.518Z,1019.28
2022-09-01T04:01:03.595Z,1019.31
2022-09-01T04:02:03.501Z,1019.27
2022-09-01T04:03:03.466Z,1019.31
2022-09-01T04:04:03.452Z,1019.30
2022-09-01T04:05:07.720Z,1019.30
2022-09-01T04:06:03.438Z,1019.35
2022-09-01T04:07:03.419Z,1019.32
2022-09-01T04:08:03.407Z,1019.33
2022-09-01T04:09:03.600Z,1019.37
2022-09-01T04:10:03.385Z,1019.30
2022-09-01T04:11:03.374Z,1019.30
2022-09-01T04:12:03.370Z,1019.29
2022-09-01T04:13:03.352Z,1019.33
2022-09-01T04:14:03.344Z,1019.33
2022-09-01T04:15:03.331Z,1019.37
2022-09-01T04:16:03.412Z,1019.33
2022-09-01T04:17:03.307Z,1019.31
2022-09-01T04:18:03.304Z,1019.34
2022-09-01T04:19:03.285Z,1019.33
2022-09-01T04:20:03.273Z,1019.31
2022-09-01T04:21:03.262Z,1019.31
2022-09-01T04:22:03.251Z,1019.28
2022-09-01T04:23:03.243Z,1019.29
2022-09-01T04:24:03.247Z,1019.21
2022-09-01T04:25:03.219Z,1019.33
2022-09-01T04:26:03.207Z,1019.30
2022-09-01T04:27:03.203Z,1019.31
2022-09-01T04:28:03.185Z,1019.30
2022-09-01T04:29:03.173Z,1019.31
2022-09-01T04:30:03.211Z,1019.31
2022-09-01T04:31:03.151Z,1019.32
2022-09-01T04:32:03.204Z,1019.33
2022-09-01T04:33:03.129Z,1019.26
2022-09-01T04:34:03.118Z,1019.33
2022-09-01T04:35:03.107Z,1019.30
2022-09-01T04:36:03.101Z,1019.30
2022-09-01T04:37:03.083Z,1019.29
2022-09-01T04:38:03.072Z,1019.28
2022-09-01T04:39:03.062Z,1019.33
2022-09-01T04:40:03.111Z,1019.32
2022-09-01T04:41:03.043Z,1019.33
2022-09-01T04:42:03.034Z,1019.39
2022-09-01T04:43:03.017Z,1019.41
2022-09-01T04:44:03.008Z,1019.37
2022-09-01T04:45:10.377Z,1019.38
2022-09-01T04:46:04.063Z,1019.38
2022-09-01T04:47:02.976Z,1019.38
2022-09-01T04:48:02.968Z,1019.40
2022-09-01T04:49:02.951Z,1019.38
2022-09-01T04:50:02.939Z,1019.42
2022-09-01T04:51:02.928Z,1019.40
2022-09-01T04:52:02.918Z,1019.40
2022-09-01T04:53:02.905Z,1019.46
2022-09-01T04:54:02.906Z,1019.42
2022-09-01T04:55:02.884Z,1019.47
2022-09-01T04:56:02.873Z,1019.45
2022-09-01T04:57:02.862Z,1019.41
2022-09-01T04:58:05.159Z,1019.43
2022-09-01T04:59:03.853Z,1019.41
2022-09-01T05:00:02.828Z,1019.45
2022-09-01T05:01:02.861Z,1019.46
2022-09-01T05:02:02.922Z,1019.42
2022-09-01T05:03:02.823Z,1019.43
2022-09-01T05:04:04.123Z,1019.40
2022-09-01T05:05:02.800Z,1019.42
2022-09-01T05:06:02.761Z,1019.39
2022-09-01T05:07:02.749Z,1019.44
2022-09-01T05:08:02.741Z,1019.40
2022-09-01T05:09:02.728Z,1019.43
2022-09-01T05:10:02.717Z,1019.40
2022-09-01T05:11:02.718Z,1019.38
2022-09-01T05:12:02.694Z,1019.36
2022-09-01T05:13:02.683Z,1019.36
2022-09-01T05:14:02.671Z,1019.36
2022-09-01T05:15:02.663Z,1019.38
2022-09-01T05:16:02.750Z,1019.36
2022-09-01T05:17:02.644Z,1019.39
2022-09-01T05:18:02.628Z,1019.41
2022-09-01T05:19:02.616Z,1019.42
2022-09-01T05:20:02.605Z,1019.39
2022-09-01T05:21:02.594Z,1019.38
2022-09-01T05:22:02.582Z,1019.41
2022-09-01T05:23:02.580Z,1019.39
2022-09-01T05:24:02.562Z,1019.39
2022-09-01T05:25:02.549Z,1019.34
2022-09-01T05:26:02.537Z,1019.33
2022-09-01T05:27:02.537Z,1019.34
2022-09-01T05:28:02.516Z,1019.35
2022-09-01T05:29:02.510Z,1019.36
2022-09-01T05:30:02.494Z,1019.37
2022-09-01T05:31:02.540Z,1019.36
2022-09-01T05:32:02.471Z,1019.35
2022-09-01T05:33:02.461Z,1019.41
2022-09-01T05:34:02.448Z,1019.38
2022-09-01T05:35:02.482Z,1019.36
2022-09-01T05:36:02.427Z,1019.38
2022-09-01T05:37:02.416Z,1019.39
2022-09-01T05:38:02.407Z,1019.42
2022-09-01T05:39:02.395Z,1019.36
2022-09-01T05:40:02.552Z,1019.41
2022-09-01T05:41:02.378Z,1019.43
2022-09-01T05:42:02.360Z,1019.43
2022-09-01T05:43:02.348Z,1019.43
2022-09-01T05:44:02.338Z,1019.43
2022-09-01T05:45:02.325Z,1019.44
2022-09-01T05:46:07.085Z,1019.46
2022-09-01T05:47:03.440Z,1019.45
2022-09-01T05:48:02.292Z,1019.50
2022-09-01T05:49:02.283Z,1019.52
2022-09-01T05:50:02.270Z,1019.53
2022-09-01T05:51:02.260Z,1019.52
2022-09-01T05:52:02.247Z,1019.51
2022-09-01T05:53:02.244Z,1019.52
2022-09-01T05:54:02.225Z,1019.53
2022-09-01T05:55:02.216Z,1019.52
2022-09-01T05:56:02.204Z,1019.50
2022-09-01T05:57:23.308Z,1019.53
2022-09-01T05:58:03.187Z,1019.52
2022-09-01T06:00:03.235Z,1019.50
2022-09-01T06:01:02.150Z,1019.49
2022-09-01T06:02:02.260Z,1019.49
2022-09-01T06:03:02.319Z,1019.50
2022-09-01T06:04:02.139Z,1019.48
2022-09-01T06:05:02.107Z,1019.47
2022-09-01T06:06:02.091Z,1019.49
2022-09-01T06:07:06.151Z,1019.47
2022-09-01T06:08:03.069Z,1019.45
2022-09-01T06:09:02.058Z,1019.45
2022-09-01T06:10:02.077Z,1019.49
2022-09-01T06:11:02.039Z,1019.51
2022-09-01T06:12:02.027Z,1019.54
2022-09-01T06:13:02.013Z,1019.55
2022-09-01T06:14:02.008Z,1019.49
2022-09-01T06:15:01.992Z,1019.51
2022-09-01T06:16:02.068Z,1019.55
2022-09-01T06:17:01.969Z,1019.56
2022-09-01T06:18:01.965Z,1019.51
2022-09-01T06:19:01.946Z,1019.52
2022-09-01T06:20:01.945Z,1019.56
2022-09-01T06:21:01.924Z,1019.59
2022-09-01T06:22:01.919Z,1019.54
2022-09-01T06:23:01.901Z,1019.56
2022-09-01T06:24:01.891Z,1019.60
2022-09-01T06:25:02.923Z,1019.55
2022-09-01T06:26:01.868Z,1019.55
2022-09-01T06:27:01.857Z,1019.57
2022-09-01T06:28:01.852Z,1019.58
2022-09-01T06:29:01.852Z,1019.56
2022-09-01T06:30:01.834Z,1019.56
2022-09-01T06:31:01.868Z,1019.64
2022-09-01T06:32:01.801Z,1019.59
2022-09-01T06:33:01.802Z,1019.58
2022-09-01T06:34:01.787Z,1019.61
2022-09-01T06:35:01.769Z,1019.61
2022-09-01T06:36:01.762Z,1019.64
2022-09-01T06:37:01.745Z,1019.63
2022-09-01T06:38:01.735Z,1019.62
2022-09-01T06:39:01.724Z,1019.65
2022-09-01T06:40:01.786Z,1019.65
2022-09-01T06:41:01.709Z,1019.67
2022-09-01T06:42:01.690Z,1019.65
2022-09-01T06:43:01.679Z,1019.66
2022-09-01T06:44:01.668Z,1019.59
2022-09-01T06:45:01.656Z,1019.66
2022-09-01T06:46:01.652Z,1019.65
2022-09-01T06:47:01.720Z,1019.60
2022-09-01T06:48:01.627Z,1019.65
2022-09-01T06:49:01.612Z,1019.60
2022-09-01T06:50:01.602Z,1019.63
2022-09-01T06:51:20.259Z,1019.64
2022-09-01T06:52:02.584Z,1019.69
2022-09-01T06:54:02.554Z,1019.69
2022-09-01T06:55:05.725Z,1019.67
2022-09-01T06:56:02.535Z,1019.64
2022-09-01T06:58:03.329Z,1019.68
2022-09-01T06:58:03.788Z,1019.67
2022-09-01T06:59:02.617Z,1019.69
2022-09-01T07:00:01.493Z,1019.65
2022-09-01T07:01:01.477Z,1019.69
2022-09-01T07:02:02.477Z,1019.70
2022-09-01T07:03:01.457Z,1019.70
2022-09-01T07:04:01.450Z,1019.71
2022-09-01T07:05:01.434Z,1019.70
2022-09-01T07:06:02.516Z,1019.68
2022-09-01T07:07:53.464Z,1019.64
2022-09-01T07:08:05.957Z,1019.63
2022-09-01T07:10:21.033Z,1019.65
2022-09-01T07:12:25.433Z,1019.70
2022-09-01T07:13:06.004Z,1019.71
2022-09-01T07:14:16.680Z,1019.75
2022-09-01T07:18:02.287Z,1019.75
2022-09-01T07:19:01.283Z,1019.75
2022-09-01T07:21:07.679Z,1019.75
2022-09-01T07:22:09.924Z,1019.80
2022-09-01T07:23:04.191Z,1019.78
2022-09-01T07:25:16.805Z,1019.77
2022-09-01T07:26:04.315Z,1019.78
2022-09-01T07:27:08.205Z,1019.75
2022-09-01T07:28:02.184Z,1019.75
2022-09-01T07:29:01.479Z,1019.73
2022-09-01T07:30:01.154Z,1019.72
2022-09-01T07:31:48.889Z,1019.73
2022-09-01T07:35:02.102Z,1019.71
2022-09-01T07:38:46.983Z,1019.68
2022-09-01T07:38:48.411Z,1019.70
2022-09-01T07:42:30.448Z,1019.77
2022-09-01T07:44:01.001Z,1019.69
2022-09-01T07:45:26.411Z,1019.67
2022-09-01T07:46:36.704Z,1019.68
2022-09-01T07:48:02.037Z,1019.70
2022-09-01T07:49:28.433Z,1019.68
2022-09-01T07:50:24.659Z,1019.69
2022-09-01T07:52:02.164Z,1019.70
2022-09-01T07:53:00.899Z,1019.70
2022-09-01T07:54:00.887Z,1019.72
2022-09-01T07:55:00.875Z,1019.71
2022-09-01T07:56:00.867Z,1019.73
2022-09-01T07:57:00.853Z,1019.74
2022-09-01T07:58:00.847Z,1019.77
2022-09-01T07:59:00.832Z,1019.77
2022-09-01T08:00:00.820Z,1019.77
2022-09-01T08:01:00.809Z,1019.77
2022-09-01T08:02:00.856Z,1019.78
2022-09-01T08:03:00.854Z,1019.76
2022-09-01T08:04:00.781Z,1019.76
2022-09-01T08:05:00.764Z,1019.77
2022-09-01T08:06:00.753Z,1019.78
2022-09-01T08:07:00.742Z,1019.80
2022-09-01T08:08:00.730Z,1019.87
2022-09-01T08:09:00.719Z,1019.82
2022-09-01T08:10:01.731Z,1019.84
2022-09-01T08:11:07.348Z,1019.87
2022-09-01T08:12:02.976Z,1019.83
2022-09-01T08:13:00.675Z,1019.86
2022-09-01T08:14:00.664Z,1019.86
2022-09-01T08:16:16.215Z,1019.87
2022-09-01T08:17:16.838Z,1019.84
2022-09-01T08:18:01.653Z,1019.86
2022-09-01T08:19:00.634Z,1019.83
2022-09-01T08:20:00.597Z,1019.86
2022-09-01T08:21:00.586Z,1019.89
2022-09-01T08:22:00.582Z,1019.84
2022-09-01T08:23:00.564Z,1019.86
2022-09-01T08:24:00.552Z,1019.86
2022-09-01T08:25:00.545Z,1019.82
2022-09-01T08:26:00.530Z,1019.83
2022-09-01T08:27:00.534Z,1019.81
2022-09-01T08:28:00.721Z,1019.76
2022-09-01T08:29:00.500Z,1019.76
2022-09-01T08:30:00.494Z,1019.81
2022-09-01T08:31:00.563Z,1019.75
2022-09-01T08:32:00.499Z,1019.76
2022-09-01T08:33:00.484Z,1019.80
2022-09-01T08:34:01.446Z,1019.73
2022-09-01T08:35:00.429Z,1019.76
2022-09-01T08:36:00.419Z,1019.79
2022-09-01T08:37:00.407Z,1019.75
2022-09-01T08:38:00.396Z,1019.79
2022-09-01T08:39:00.384Z,1019.78
2022-09-01T08:40:00.409Z,1019.80
2022-09-01T08:41:00.475Z,1019.76
2022-09-01T08:42:00.352Z,1019.79
2022-09-01T08:43:00.341Z,1019.78
2022-09-01T08:44:00.330Z,1019.72
2022-09-01T08:45:00.320Z,1019.80
2022-09-01T08:46:00.364Z,1019.78
2022-09-01T08:47:00.296Z,1019.82
2022-09-01T08:48:37.081Z,1019.76
2022-09-01T08:50:01.262Z,1019.76
2022-09-01T08:51:00.251Z,1019.78
2022-09-01T08:52:00.966Z,1019.81
2022-09-01T08:53:09.070Z,1019.77
2022-09-01T08:54:01.216Z,1019.71
2022-09-01T08:55:00.208Z,1019.74
2022-09-01T08:56:00.197Z,1019.72
2022-09-01T08:57:00.185Z,1019.73
2022-09-01T08:58:00.382Z,1019.72
2022-09-01T08:59:00.380Z,1019.73
2022-09-01T09:00:00.200Z,1019.74
2022-09-01T09:01:00.139Z,1019.72
2022-09-01T09:02:00.280Z,1019.71
2022-09-01T09:03:00.348Z,1019.73
2022-09-01T09:04:00.116Z,1019.71
2022-09-01T09:05:00.100Z,1019.68
2022-09-01T09:06:00.880Z,1019.73
2022-09-01T09:07:00.124Z,1019.74
2022-09-01T09:08:07.675Z,1019.72
2022-09-01T09:09:01.261Z,1019.71
2022-09-01T09:10:00.040Z,1019.67
2022-09-01T09:11:00.029Z,1019.66
2022-09-01T09:12:00.021Z,1019.62
2022-09-01T09:13:00.568Z,1019.64
2022-09-01T09:13:59.996Z,1019.61
2022-09-01T09:14:59.990Z,1019.61
2022-09-01T09:16:08.057Z,1019.63
2022-09-01T09:17:00.962Z,1019.62
2022-09-01T09:18:00.595Z,1019.59
2022-09-01T09:18:59.940Z,1019.60
2022-09-01T09:19:59.929Z,1019.65
2022-09-01T09:20:59.924Z,1019.66
2022-09-01T09:21:59.906Z,1019.67
2022-09-01T09:22:59.912Z,1019.69
2022-09-01T09:23:59.884Z,1019.70
2022-09-01T09:24:59.872Z,1019.69
2022-09-01T09:25:59.861Z,1019.69
2022-09-01T09:26:59.881Z,1019.73
2022-09-01T09:28:01.172Z,1019.61
2022-09-01T09:28:59.828Z,1019.62
2022-09-01T09:30:04.245Z,1019.61
2022-09-01T09:31:00.844Z,1019.64
2022-09-01T09:31:59.794Z,1019.65
2022-09-01T09:33:31.025Z,1019.65
2022-09-01T09:34:00.932Z,1019.60
2022-09-01T09:34:59.762Z,1019.65
2022-09-01T09:35:59.826Z,1019.63
2022-09-01T09:36:59.742Z,1019.64
2022-09-01T09:37:59.732Z,1019.67
2022-09-01T09:39:00.063Z,1019.61
2022-09-01T09:39:59.711Z,1019.52
2022-09-01T09:41:18.881Z,1019.60
2022-09-01T09:42:00.682Z,1019.61
2022-09-01T09:43:01.646Z,1019.56
2022-09-01T09:43:59.662Z,1019.55
2022-09-01T09:44:59.657Z,1019.57
2022-09-01T09:45:59.655Z,1019.62
2022-09-01T09:46:59.668Z,1019.55
2022-09-01T09:47:59.617Z,1019.55
2022-09-01T09:48:59.608Z,1019.56
2022-09-01T09:49:59.597Z,1019.55
2022-09-01T09:50:59.605Z,1019.59
2022-09-01T09:51:59.574Z,1019.53
2022-09-01T09:52:59.562Z,1019.58
2022-09-01T09:53:59.552Z,1019.54
2022-09-01T09:54:59.539Z,1019.57
2022-09-01T09:55:59.529Z,1019.52
2022-09-01T09:56:59.524Z,1019.53
2022-09-01T09:57:59.505Z,1019.54
2022-09-01T09:58:59.499Z,1019.49
2022-09-01T10:00:01.138Z,1019.54
2022-09-01T10:00:59.516Z,1019.53
2022-09-01T10:01:59.461Z,1019.49
2022-09-01T10:02:59.458Z,1019.52
2022-09-01T10:03:59.505Z,1019.59
2022-09-01T10:04:59.433Z,1019.53
2022-09-01T10:05:59.416Z,1019.59
2022-09-01T10:06:59.413Z,1019.56
2022-09-01T10:07:59.394Z,1019.57
2022-09-01T10:08:59.391Z,1019.60
2022-09-01T10:09:59.376Z,1019.60
2022-09-01T10:10:59.363Z,1019.60
2022-09-01T10:11:59.350Z,1019.63
2022-09-01T10:12:59.343Z,1019.63
2022-09-01T10:13:59.329Z,1019.59
2022-09-01T10:14:59.326Z,1019.61
2022-09-01T10:15:59.307Z,1019.55
2022-09-01T10:16:59.603Z,1019.54
2022-09-01T10:18:20.574Z,1019.52
2022-09-01T10:19:00.274Z,1019.59
2022-09-01T10:19:59.262Z,1019.48
2022-09-01T10:20:59.260Z,1019.48
2022-09-01T10:21:59.241Z,1019.48
2022-09-01T10:22:59.235Z,1019.49
2022-09-01T10:24:16.990Z,1019.51
2022-09-01T10:25:00.207Z,1019.48
2022-09-01T10:25:59.195Z,1019.51
2022-09-01T10:26:59.201Z,1019.54
2022-09-01T10:27:59.298Z,1019.51
2022-09-01T10:28:59.164Z,1019.50
2022-09-01T10:30:18.784Z,1019.49
2022-09-01T10:31:00.196Z,1019.50
2022-09-01T10:32:28.057Z,1019.48
2022-09-01T10:33:06.992Z,1019.51
2022-09-01T10:34:00.108Z,1019.50
2022-09-01T10:34:59.723Z,1019.44
2022-09-01T10:35:59.084Z,1019.42
2022-09-01T10:36:59.263Z,1019.44
2022-09-01T10:37:59.526Z,1019.43
2022-09-01T10:39:04.924Z,1019.46
2022-09-01T10:40:00.071Z,1019.47
2022-09-01T10:40:59.066Z,1019.45
2022-09-01T10:42:00.670Z,1019.43
2022-09-01T10:42:59.012Z,1019.44
2022-09-01T10:44:02.241Z,1019.41
2022-09-01T10:44:59.000Z,1019.44
2022-09-01T10:46:05.381Z,1019.43
2022-09-01T10:47:01.994Z,1019.42
2022-09-01T10:47:58.950Z,1019.40
2022-09-01T10:49:03.069Z,1019.44
2022-09-01T10:49:58.929Z,1019.43
2022-09-01T10:50:59.284Z,1019.44
2022-09-01T10:52:03.285Z,1019.39
2022-09-01T10:52:59.900Z,1019.44
2022-09-01T10:54:02.240Z,1019.36
2022-09-01T10:54:58.873Z,1019.39
2022-09-01T10:55:59.582Z,1019.40
2022-09-01T10:57:03.998Z,1019.42
2022-09-01T10:58:08.462Z,1019.35
2022-09-01T10:59:59.987Z,1019.36
2022-09-01T11:01:18.998Z,1019.41
2022-09-01T11:03:00.421Z,1019.33
2022-09-01T11:04:00.498Z,1019.37
2022-09-01T11:04:58.857Z,1019.32
2022-09-01T11:06:11.441Z,1019.32
2022-09-01T11:07:15.060Z,1019.38
2022-09-01T11:08:01.261Z,1019.32
2022-09-01T11:08:58.717Z,1019.35
2022-09-01T11:10:08.736Z,1019.36
2022-09-01T11:10:59.718Z,1019.34
2022-09-01T11:11:58.689Z,1019.32
2022-09-01T11:12:58.683Z,1019.33
2022-09-01T11:13:58.669Z,1019.30
2022-09-01T11:14:58.651Z,1019.28
2022-09-01T11:16:00.713Z,1019.32
2022-09-01T11:16:58.684Z,1019.31
2022-09-01T11:17:58.618Z,1019.30
2022-09-01T11:18:58.607Z,1019.36
2022-09-01T11:19:58.603Z,1019.35
2022-09-01T11:20:58.602Z,1019.37
2022-09-01T11:21:58.574Z,1019.39
2022-09-01T11:22:58.563Z,1019.39
2022-09-01T11:23:58.553Z,1019.33
2022-09-01T11:25:02.569Z,1019.37
2022-09-01T11:26:59.518Z,1019.39
2022-09-01T11:27:58.509Z,1019.37
2022-09-01T11:28:58.498Z,1019.33
2022-09-01T11:29:58.489Z,1019.36
2022-09-01T11:30:58.476Z,1019.39
2022-09-01T11:31:58.558Z,1019.41
2022-09-01T11:32:58.453Z,1019.38
2022-09-01T11:33:58.557Z,1019.38
2022-09-01T11:34:58.435Z,1019.36
2022-09-01T11:35:58.422Z,1019.36
2022-09-01T11:36:58.429Z,1019.33
2022-09-01T11:37:58.405Z,1019.42
2022-09-01T11:38:58.386Z,1019.36
2022-09-01T11:39:58.375Z,1019.33
2022-09-01T11:40:58.436Z,1019.38
2022-09-01T11:42:02.084Z,1019.33
2022-09-01T11:42:59.348Z,1019.32
2022-09-01T11:43:58.331Z,1019.37
2022-09-01T11:44:58.325Z,1019.35
2022-09-01T11:45:58.373Z,1019.38
2022-09-01T11:46:58.299Z,1019.34
2022-09-01T11:47:58.288Z,1019.34
2022-09-01T11:48:58.282Z,1019.30
2022-09-01T11:49:58.266Z,1019.29
2022-09-01T11:50:58.253Z,1019.35
2022-09-01T11:51:58.244Z,1019.34
2022-09-01T11:53:02.565Z,1019.35
2022-09-01T11:53:59.226Z,1019.37
2022-09-01T11:54:58.210Z,1019.31
2022-09-01T11:55:58.199Z,1019.36
2022-09-01T11:56:58.190Z,1019.37
2022-09-01T11:57:58.176Z,1019.36
2022-09-01T11:58:58.165Z,1019.36
2022-09-01T11:59:58.186Z,1019.35
2022-09-01T12:00:58.145Z,1019.35
2022-09-01T12:01:58.343Z,1019.32
2022-09-01T12:02:58.302Z,1019.28
2022-09-01T12:03:58.112Z,1019.31
2022-09-01T12:04:58.099Z,1019.30
2022-09-01T12:05:58.095Z,1019.30
2022-09-01T12:06:58.081Z,1019.28
2022-09-01T12:07:58.071Z,1019.35
2022-09-01T12:08:58.055Z,1019.27
2022-09-01T12:09:58.044Z,1019.30
2022-09-01T12:10:58.032Z,1019.30
2022-09-01T12:11:58.038Z,1019.28
2022-09-01T12:12:58.016Z,1019.25
2022-09-01T12:13:58.000Z,1019.28
2022-09-01T12:15:05.531Z,1019.25
2022-09-01T12:16:19.710Z,1019.28
2022-09-01T12:16:58.994Z,1019.26
2022-09-01T12:17:57.955Z,1019.23
2022-09-01T12:18:57.949Z,1019.27
2022-09-01T12:19:57.934Z,1019.24
2022-09-01T12:20:57.925Z,1019.28
2022-09-01T12:21:57.914Z,1019.23
2022-09-01T12:22:57.910Z,1019.26
2022-09-01T12:23:57.889Z,1019.24
2022-09-01T12:24:57.878Z,1019.23
2022-09-01T12:25:57.871Z,1019.25
2022-09-01T12:26:57.858Z,1019.22
2022-09-01T12:27:57.845Z,1019.25
2022-09-01T12:28:57.839Z,1019.25